Porter, Maine
Current Conditions -  °F | °C
As of 11:13 PM on Wednesday 17 Dec 2014 (Local Time) from KIZG Reporting Station
Overcast Overcast  
Wind Chill: 33°   Ceiling: 4400
Heat Index: 33°   Visibility: 8mi
Dew Point: 32°   Wind: 0mph
Humidity: 96%   Direction: NA
Pressure: 29.65"   Gusts: NA
Location:  43.8°N, 70.93°W
Report Text: KIZG 180413Z AUTO 00000KT 8SM OVC044 01/00 A2965 RMK AO2 T00060000
Loading
Personal Weather Stations






























Interactive Weather Map New forecast layout! Learn more

10-Day Weather Forecast

Advertisements
Track Severe Weather on mobile